Bono, Ohio
Current Conditions -  °F | °C
As of 3:53 AM on Thursday 18 Dec 2014 (Local Time) from KTDZ Reporting Station
Overcast Overcast  
Wind Chill: 21°   Ceiling: 2600
Heat Index: 30°   Visibility: 10mi
Dew Point: 20°   Wind: 12mph
Humidity: 66%   Direction: 270°W
Pressure: 30.23"   Gusts: NA
Location:  41.5863°N, 83.2966°W
Report Text: KTDZ 180853Z AUTO 27010KT 10SM OVC026 M01/M07 A3023 RMK AO2 SLP243 T10111067 51001 TSNO
Loading
Personal Weather Stations






























Interactive Weather Map New forecast layout! Learn more

10-Day Weather Forecast

Advertisements
Track Severe Weather on mobile